Аэропорт: Кемерово. Кемерово

ICAO: UNEE

METAR:
2019-07-23 18:00:00
UNEE 231800Z 32002MPS 7000 SCT031 14/10 Q1003 R23/CLRD60 NOSIG RMK QFE730
METAR:
2019-07-23 17:00:00
TAF UNEE 231700Z 2318/2418 32003MPS 3100 FU SCT011 BECMG 2319/2320 0800 FG BKN003 TEMPO 2320/2403 0100 FG BKN001 BECMG 2403/2404 4000 FU SCT020